PWSweather.com
Personal Weather Stations
Station Observations
KIDNAMPA57
Canyon County Idaho, Nampa, ID 83687

Canyon County IdahoNampa, ID 83687

Lat: 43.587235, Lon: -116.49831979999999

Elevation: 2615

Station Type: Davis Vantage Pro 2

www.rockinglweather.com

High Low Average
Temperature 49.7°F9.8°C 31.1°F-0.5°C 36.0°F2.2°C
Dew Point 38.7°F3.7°C 29.3°F-1.5°C 32.5°F0.3°C
Winds 9.0 mph 14.5 kmh Calm Calm 2.0 mph S3.2 kmh S
Wind Gusts 11.0 mph17.7 kmh -- 5.0 mph8.0 kmh
Humidity 94% 61% 87%
Pressure 30.54 in1034.2 mb 30.39 in1029.1 mb -
Precipitation 0.00 in0.0 mm - -
Hour Temp Dew Point Humidity Winds Wind Gusts Pressure Precip Precip Rate Daily Precip Total
12:00 AM 32.7°F0.4°C 30.9°F-0.6°C 93% Calm Calm 2.0 mph3.2 kmh 30.52 in1033.5 mb 0.00 in0.0 mm 0.00 in0.0 mm 0.00 in0.0 mm
12:05 AM 32.6°F0.3°C 30.5°F-0.8°C 92% Calm Calm -- 30.53 in1033.9 mb 0.00 in0.0 mm 0.00 in0.0 mm 0.00 in0.0 mm
12:10 AM 32.6°F0.3°C 30.8°F-0.7°C 93% Calm Calm -- 30.53 in1033.9 mb 0.00 in0.0 mm 0.00 in0.0 mm 0.00 in0.0 mm
12:15 AM 32.4°F0.2°C 30.3°F-0.9°C 92% Calm Calm -- 30.53 in1033.9 mb 0.00 in0.0 mm 0.00 in0.0 mm 0.00 in0.0 mm
12:20 AM 32.6°F0.3°C 30.8°F-0.7°C 93% Calm Calm -- 30.53 in1033.9 mb 0.00 in0.0 mm 0.00 in0.0 mm 0.00 in0.0 mm
12:25 AM 32.8°F0.4°C 31.0°F-0.6°C 93% Calm Calm -- 30.52 in1033.5 mb 0.00 in0.0 mm 0.00 in0.0 mm 0.00 in0.0 mm
12:30 AM 32.9°F0.5°C 31.1°F-0.5°C 93% Calm Calm -- 30.52 in1033.5 mb 0.00 in0.0 mm 0.00 in0.0 mm 0.00 in0.0 mm
12:35 AM 32.6°F0.3°C 30.8°F-0.7°C 93% Calm Calm -- 30.52 in1033.5 mb 0.00 in0.0 mm 0.00 in0.0 mm 0.00 in0.0 mm
12:45 AM 32.0°F0.0°C 30.2°F-1.0°C 93% Calm Calm 1.0 mph1.6 kmh 30.52 in1033.5 mb 0.00 in0.0 mm 0.00 in0.0 mm 0.00 in0.0 mm
01:00 AM 32.3°F0.2°C 30.5°F-0.8°C 93% Calm Calm 1.0 mph1.6 kmh 30.53 in1033.9 mb 0.00 in0.0 mm 0.00 in0.0 mm 0.00 in0.0 mm
01:15 AM 31.8°F-0.1°C 30.0°F-1.1°C 93% Calm Calm 1.0 mph1.6 kmh 30.53 in1033.9 mb 0.00 in0.0 mm 0.00 in0.0 mm 0.00 in0.0 mm
01:30 AM 32.2°F0.1°C 30.7°F-0.7°C 94% Calm Calm 2.0 mph3.2 kmh 30.53 in1033.9 mb 0.00 in0.0 mm 0.00 in0.0 mm 0.00 in0.0 mm
01:45 AM 31.8°F-0.1°C 30.3°F-0.9°C 94% Calm Calm -- 30.53 in1033.9 mb 0.00 in0.0 mm 0.00 in0.0 mm 0.00 in0.0 mm
02:00 AM 31.1°F-0.5°C 29.3°F-1.5°C 93% Calm Calm -- 30.53 in1033.9 mb 0.00 in0.0 mm 0.00 in0.0 mm 0.00 in0.0 mm
02:15 AM 31.2°F-0.4°C 29.7°F-1.3°C 94% Calm Calm -- 30.53 in1033.9 mb 0.00 in0.0 mm 0.00 in0.0 mm 0.00 in0.0 mm
02:30 AM 32.4°F0.2°C 30.9°F-0.6°C 94% Calm Calm 1.0 mph1.6 kmh 30.53 in1033.9 mb 0.00 in0.0 mm 0.00 in0.0 mm 0.00 in0.0 mm
02:45 AM 32.6°F0.3°C 31.1°F-0.5°C 94% 1.0 mph ESE1.6 kmh ESE 4.0 mph6.4 kmh 30.53 in1033.9 mb 0.00 in0.0 mm 0.00 in0.0 mm 0.00 in0.0 mm
03:00 AM 32.1°F0.1°C 30.6°F-0.8°C 94% 1.0 mph ESE1.6 kmh ESE 3.0 mph4.8 kmh 30.53 in1033.9 mb 0.00 in0.0 mm 0.00 in0.0 mm 0.00 in0.0 mm
03:15 AM 33.0°F0.6°C 31.5°F-0.3°C 94% Calm Calm 3.0 mph4.8 kmh 30.53 in1033.9 mb 0.00 in0.0 mm 0.00 in0.0 mm 0.00 in0.0 mm
03:30 AM 33.4°F0.8°C 31.9°F-0.1°C 94% 1.0 mph ESE1.6 kmh ESE 3.0 mph4.8 kmh 30.53 in1033.9 mb 0.00 in0.0 mm 0.00 in0.0 mm 0.00 in0.0 mm
03:45 AM 33.3°F0.7°C 31.8°F-0.1°C 94% 1.0 mph ESE1.6 kmh ESE 3.0 mph4.8 kmh 30.54 in1034.2 mb 0.00 in0.0 mm 0.00 in0.0 mm 0.00 in0.0 mm
04:00 AM 33.2°F0.7°C 31.7°F-0.2°C 94% 1.0 mph SE1.6 kmh SE 3.0 mph4.8 kmh 30.54 in1034.2 mb 0.00 in0.0 mm 0.00 in0.0 mm 0.00 in0.0 mm
04:15 AM 32.9°F0.5°C 31.1°F-0.5°C 93% 1.0 mph SE1.6 kmh SE 3.0 mph4.8 kmh 30.54 in1034.2 mb 0.00 in0.0 mm 0.00 in0.0 mm 0.00 in0.0 mm
04:30 AM 33.1°F0.6°C 31.6°F-0.2°C 94% Calm Calm 3.0 mph4.8 kmh 30.54 in1034.2 mb 0.00 in0.0 mm 0.00 in0.0 mm 0.00 in0.0 mm
04:45 AM 32.5°F0.3°C 31.0°F-0.6°C 94% 1.0 mph SE1.6 kmh SE 2.0 mph3.2 kmh 30.54 in1034.2 mb 0.00 in0.0 mm 0.00 in0.0 mm 0.00 in0.0 mm
05:00 AM 34.1°F1.2°C 32.6°F0.3°C 94% 1.0 mph ESE1.6 kmh ESE 4.0 mph6.4 kmh 30.54 in1034.2 mb 0.00 in0.0 mm 0.00 in0.0 mm 0.00 in0.0 mm
05:15 AM 34.6°F1.4°C 32.5°F0.3°C 92% Calm Calm 5.0 mph8.0 kmh 30.54 in1034.2 mb 0.00 in0.0 mm 0.00 in0.0 mm 0.00 in0.0 mm
05:30 AM 34.5°F1.4°C 32.2°F0.1°C 91% 4.0 mph ESE6.4 kmh ESE 8.0 mph12.9 kmh 30.53 in1033.9 mb 0.00 in0.0 mm 0.00 in0.0 mm 0.00 in0.0 mm
05:35 AM 34.2°F1.2°C 31.9°F-0.1°C 91% 5.0 mph ESE8.0 kmh ESE 7.0 mph11.3 kmh 30.53 in1033.9 mb 0.00 in0.0 mm 0.00 in0.0 mm 0.00 in0.0 mm
05:40 AM 34.1°F1.2°C 31.8°F-0.1°C 91% 1.0 mph SE1.6 kmh SE 7.0 mph11.3 kmh 30.53 in1033.9 mb 0.00 in0.0 mm 0.00 in0.0 mm 0.00 in0.0 mm
05:45 AM 34.0°F1.1°C 31.7°F-0.2°C 91% 4.0 mph SE6.4 kmh SE 7.0 mph11.3 kmh 30.52 in1033.5 mb 0.00 in0.0 mm 0.00 in0.0 mm 0.00 in0.0 mm
05:50 AM 34.0°F1.1°C 31.7°F-0.2°C 91% 6.0 mph S9.7 kmh S 6.0 mph9.7 kmh 30.52 in1033.5 mb 0.00 in0.0 mm 0.00 in0.0 mm 0.00 in0.0 mm
05:55 AM 34.0°F1.1°C 31.7°F-0.2°C 91% 3.0 mph SE4.8 kmh SE 7.0 mph11.3 kmh 30.52 in1033.5 mb 0.00 in0.0 mm 0.00 in0.0 mm 0.00 in0.0 mm
06:00 AM 34.3°F1.3°C 32.0°F0.0°C 91% 1.0 mph ESE1.6 kmh ESE 7.0 mph11.3 kmh 30.52 in1033.5 mb 0.00 in0.0 mm 0.00 in0.0 mm 0.00 in0.0 mm
06:05 AM 34.3°F1.3°C 32.0°F0.0°C 91% 5.0 mph SE8.0 kmh SE 7.0 mph11.3 kmh 30.52 in1033.5 mb 0.00 in0.0 mm 0.00 in0.0 mm 0.00 in0.0 mm
06:10 AM 34.3°F1.3°C 31.7°F-0.2°C 90% 6.0 mph ESE9.7 kmh ESE 10.0 mph16.1 kmh 30.52 in1033.5 mb 0.00 in0.0 mm 0.00 in0.0 mm 0.00 in0.0 mm
06:15 AM 34.4°F1.3°C 31.8°F-0.1°C 90% 7.0 mph ESE11.3 kmh ESE 10.0 mph16.1 kmh 30.52 in1033.5 mb 0.00 in0.0 mm 0.00 in0.0 mm 0.00 in0.0 mm
06:20 AM 34.4°F1.3°C 32.1°F0.1°C 91% 7.0 mph SE11.3 kmh SE 10.0 mph16.1 kmh 30.51 in1033.2 mb 0.00 in0.0 mm 0.00 in0.0 mm 0.00 in0.0 mm
06:25 AM 34.6°F1.4°C 32.0°F0.0°C 90% 4.0 mph ESE6.4 kmh ESE 10.0 mph16.1 kmh 30.51 in1033.2 mb 0.00 in0.0 mm 0.00 in0.0 mm 0.00 in0.0 mm
06:30 AM 34.8°F1.6°C 32.2°F0.1°C 90% 3.0 mph SE4.8 kmh SE 10.0 mph16.1 kmh 30.51 in1033.2 mb 0.00 in0.0 mm 0.00 in0.0 mm 0.00 in0.0 mm
06:35 AM 34.9°F1.6°C 32.3°F0.2°C 90% 5.0 mph SE8.0 kmh SE 7.0 mph11.3 kmh 30.51 in1033.2 mb 0.00 in0.0 mm 0.00 in0.0 mm 0.00 in0.0 mm
06:40 AM 34.9°F1.6°C 32.3°F0.2°C 90% 5.0 mph SE8.0 kmh SE 7.0 mph11.3 kmh 30.51 in1033.2 mb 0.00 in0.0 mm 0.00 in0.0 mm 0.00 in0.0 mm
06:45 AM 34.9°F1.6°C 32.3°F0.2°C 90% 3.0 mph SSE4.8 kmh SSE 8.0 mph12.9 kmh 30.51 in1033.2 mb 0.00 in0.0 mm 0.00 in0.0 mm 0.00 in0.0 mm
06:50 AM 34.7°F1.5°C 31.8°F-0.1°C 89% 2.0 mph SE3.2 kmh SE 8.0 mph12.9 kmh 30.51 in1033.2 mb 0.00 in0.0 mm 0.00 in0.0 mm 0.00 in0.0 mm
06:55 AM 34.4°F1.3°C 31.5°F-0.3°C 89% 3.0 mph ESE4.8 kmh ESE 8.0 mph12.9 kmh 30.51 in1033.2 mb 0.00 in0.0 mm 0.00 in0.0 mm 0.00 in0.0 mm
07:05 AM 34.1°F1.2°C 31.2°F-0.4°C 89% 4.0 mph SE6.4 kmh SE 7.0 mph11.3 kmh 30.51 in1033.2 mb 0.00 in0.0 mm 0.00 in0.0 mm 0.00 in0.0 mm
07:10 AM 34.0°F1.1°C 31.1°F-0.5°C 89% 3.0 mph SE4.8 kmh SE 7.0 mph11.3 kmh 30.51 in1033.2 mb 0.00 in0.0 mm 0.00 in0.0 mm 0.00 in0.0 mm
07:20 AM 34.0°F1.1°C 31.4°F-0.3°C 90% 2.0 mph ESE3.2 kmh ESE 9.0 mph14.5 kmh 30.51 in1033.2 mb 0.00 in0.0 mm 0.00 in0.0 mm 0.00 in0.0 mm
07:25 AM 34.0°F1.1°C 31.4°F-0.3°C 90% 9.0 mph E14.5 kmh E 9.0 mph14.5 kmh 30.51 in1033.2 mb 0.00 in0.0 mm 0.00 in0.0 mm 0.00 in0.0 mm
07:30 AM 34.0°F1.1°C 31.4°F-0.3°C 90% 5.0 mph SE8.0 kmh SE 9.0 mph14.5 kmh 30.51 in1033.2 mb 0.00 in0.0 mm 0.00 in0.0 mm 0.00 in0.0 mm
07:35 AM 34.1°F1.2°C 31.2°F-0.4°C 89% 3.0 mph ESE4.8 kmh ESE 8.0 mph12.9 kmh 30.51 in1033.2 mb 0.00 in0.0 mm 0.00 in0.0 mm 0.00 in0.0 mm
07:40 AM 34.2°F1.2°C 31.3°F-0.4°C 89% 5.0 mph ESE8.0 kmh ESE 8.0 mph12.9 kmh 30.51 in1033.2 mb 0.00 in0.0 mm 0.00 in0.0 mm 0.00 in0.0 mm
07:45 AM 34.3°F1.3°C 31.4°F-0.3°C 89% 4.0 mph SE6.4 kmh SE 8.0 mph12.9 kmh 30.51 in1033.2 mb 0.00 in0.0 mm 0.00 in0.0 mm 0.00 in0.0 mm
07:50 AM 34.4°F1.3°C 31.2°F-0.4°C 88% 5.0 mph SE8.0 kmh SE 7.0 mph11.3 kmh 30.51 in1033.2 mb 0.00 in0.0 mm 0.00 in0.0 mm 0.00 in0.0 mm
07:55 AM 34.2°F1.2°C 31.0°F-0.6°C 88% 3.0 mph SE4.8 kmh SE 7.0 mph11.3 kmh 30.51 in1033.2 mb 0.00 in0.0 mm 0.00 in0.0 mm 0.00 in0.0 mm
08:00 AM 33.9°F1.1°C 30.7°F-0.7°C 88% 2.0 mph SE3.2 kmh SE 7.0 mph11.3 kmh 30.51 in1033.2 mb 0.00 in0.0 mm 0.00 in0.0 mm 0.00 in0.0 mm
08:05 AM 33.7°F0.9°C 30.8°F-0.7°C 89% Calm Calm 3.0 mph4.8 kmh 30.51 in1033.2 mb 0.00 in0.0 mm 0.00 in0.0 mm 0.00 in0.0 mm
08:10 AM 33.5°F0.8°C 30.6°F-0.8°C 89% 3.0 mph SE4.8 kmh SE 5.0 mph8.0 kmh 30.51 in1033.2 mb 0.00 in0.0 mm 0.00 in0.0 mm 0.00 in0.0 mm
08:20 AM 34.1°F1.2°C 31.2°F-0.4°C 89% 2.0 mph ESE3.2 kmh ESE 5.0 mph8.0 kmh 30.51 in1033.2 mb 0.00 in0.0 mm 0.00 in0.0 mm 0.00 in0.0 mm
08:25 AM 34.6°F1.4°C 31.7°F-0.2°C 89% 5.0 mph ESE8.0 kmh ESE 8.0 mph12.9 kmh 30.51 in1033.2 mb 0.00 in0.0 mm 0.00 in0.0 mm 0.00 in0.0 mm
08:30 AM 34.9°F1.6°C 31.7°F-0.2°C 88% 5.0 mph ESE8.0 kmh ESE 8.0 mph12.9 kmh 30.51 in1033.2 mb 0.00 in0.0 mm 0.00 in0.0 mm 0.00 in0.0 mm
08:35 AM 34.9°F1.6°C 31.4°F-0.3°C 87% 2.0 mph SE3.2 kmh SE 7.0 mph11.3 kmh 30.51 in1033.2 mb 0.00 in0.0 mm 0.00 in0.0 mm 0.00 in0.0 mm
08:40 AM 34.8°F1.6°C 31.3°F-0.4°C 87% 3.0 mph ESE4.8 kmh ESE 7.0 mph11.3 kmh 30.51 in1033.2 mb 0.00 in0.0 mm 0.00 in0.0 mm 0.00 in0.0 mm
08:45 AM 34.7°F1.5°C 31.2°F-0.4°C 87% 3.0 mph SE4.8 kmh SE 7.0 mph11.3 kmh 30.50 in1032.8 mb 0.00 in0.0 mm 0.00 in0.0 mm 0.00 in0.0 mm
08:50 AM 34.7°F1.5°C 31.2°F-0.4°C 87% 1.0 mph SE1.6 kmh SE 5.0 mph8.0 kmh 30.51 in1033.2 mb 0.00 in0.0 mm 0.00 in0.0 mm 0.00 in0.0 mm
08:55 AM 34.5°F1.4°C 31.0°F-0.6°C 87% 3.0 mph SSE4.8 kmh SSE 5.0 mph8.0 kmh 30.51 in1033.2 mb 0.00 in0.0 mm 0.00 in0.0 mm 0.00 in0.0 mm
09:00 AM 34.0°F1.1°C 30.6°F-0.8°C 87% 1.0 mph SSE1.6 kmh SSE 5.0 mph8.0 kmh 30.51 in1033.2 mb 0.00 in0.0 mm 0.00 in0.0 mm 0.00 in0.0 mm
09:05 AM 33.7°F0.9°C 30.5°F-0.8°C 88% 3.0 mph SSE4.8 kmh SSE 5.0 mph8.0 kmh 30.51 in1033.2 mb 0.00 in0.0 mm 0.00 in0.0 mm 0.00 in0.0 mm
09:10 AM 33.6°F0.9°C 30.4°F-0.9°C 88% 3.0 mph S4.8 kmh S 5.0 mph8.0 kmh 30.51 in1033.2 mb 0.00 in0.0 mm 0.00 in0.0 mm 0.00 in0.0 mm
09:15 AM 33.3°F0.7°C 30.1°F-1.1°C 88% 2.0 mph S3.2 kmh S 5.0 mph8.0 kmh 30.51 in1033.2 mb 0.00 in0.0 mm 0.00 in0.0 mm 0.00 in0.0 mm
09:20 AM 33.0°F0.6°C 29.8°F-1.2°C 88% 2.0 mph S3.2 kmh S 4.0 mph6.4 kmh 30.51 in1033.2 mb 0.00 in0.0 mm 0.00 in0.0 mm 0.00 in0.0 mm
09:25 AM 32.7°F0.4°C 29.8°F-1.2°C 89% 3.0 mph SSE4.8 kmh SSE 5.0 mph8.0 kmh 30.51 in1033.2 mb 0.00 in0.0 mm 0.00 in0.0 mm 0.00 in0.0 mm
09:30 AM 32.5°F0.3°C 29.6°F-1.3°C 89% Calm Calm 5.0 mph8.0 kmh 30.51 in1033.2 mb 0.00 in0.0 mm 0.00 in0.0 mm 0.00 in0.0 mm
09:35 AM 32.4°F0.2°C 29.8°F-1.2°C 90% 2.0 mph S3.2 kmh S 3.0 mph4.8 kmh 30.51 in1033.2 mb 0.00 in0.0 mm 0.00 in0.0 mm 0.00 in0.0 mm
09:40 AM 32.7°F0.4°C 30.1°F-1.1°C 90% 3.0 mph SSE4.8 kmh SSE 5.0 mph8.0 kmh 30.51 in1033.2 mb 0.00 in0.0 mm 0.00 in0.0 mm 0.00 in0.0 mm
09:45 AM 32.7°F0.4°C 29.8°F-1.2°C 89% 2.0 mph SSE3.2 kmh SSE 5.0 mph8.0 kmh 30.51 in1033.2 mb 0.00 in0.0 mm 0.00 in0.0 mm 0.00 in0.0 mm
09:50 AM 32.7°F0.4°C 29.8°F-1.2°C 89% 3.0 mph S4.8 kmh S 4.0 mph6.4 kmh 30.51 in1033.2 mb 0.00 in0.0 mm 0.00 in0.0 mm 0.00 in0.0 mm
09:55 AM 32.9°F0.5°C 30.0°F-1.1°C 89% 3.0 mph SSE4.8 kmh SSE 4.0 mph6.4 kmh 30.51 in1033.2 mb 0.00 in0.0 mm 0.00 in0.0 mm 0.00 in0.0 mm
10:00 AM 33.1°F0.6°C 30.2°F-1.0°C 89% 3.0 mph S4.8 kmh S 5.0 mph8.0 kmh 30.51 in1033.2 mb 0.00 in0.0 mm 0.00 in0.0 mm 0.00 in0.0 mm
10:05 AM 33.5°F0.8°C 30.6°F-0.8°C 89% 4.0 mph SSE6.4 kmh SSE 7.0 mph11.3 kmh 30.51 in1033.2 mb 0.00 in0.0 mm 0.00 in0.0 mm 0.00 in0.0 mm
10:10 AM 33.9°F1.1°C 30.7°F-0.7°C 88% 3.0 mph S4.8 kmh S 7.0 mph11.3 kmh 30.51 in1033.2 mb 0.00 in0.0 mm 0.00 in0.0 mm 0.00 in0.0 mm
10:15 AM 34.3°F1.3°C 31.1°F-0.5°C 88% 3.0 mph SSE4.8 kmh SSE 7.0 mph11.3 kmh 30.52 in1033.5 mb 0.00 in0.0 mm 0.00 in0.0 mm 0.00 in0.0 mm
10:20 AM 34.6°F1.4°C 31.1°F-0.5°C 87% Calm Calm 7.0 mph11.3 kmh 30.52 in1033.5 mb 0.00 in0.0 mm 0.00 in0.0 mm 0.00 in0.0 mm
10:25 AM 34.6°F1.4°C 31.4°F-0.3°C 88% 1.0 mph S1.6 kmh S 7.0 mph11.3 kmh 30.52 in1033.5 mb 0.00 in0.0 mm 0.00 in0.0 mm 0.00 in0.0 mm
10:30 AM 34.7°F1.5°C 31.2°F-0.4°C 87% 2.0 mph S3.2 kmh S 7.0 mph11.3 kmh 30.52 in1033.5 mb 0.00 in0.0 mm 0.00 in0.0 mm 0.00 in0.0 mm
10:35 AM 34.9°F1.6°C 31.4°F-0.3°C 87% 3.0 mph S4.8 kmh S 4.0 mph6.4 kmh 30.52 in1033.5 mb 0.00 in0.0 mm 0.00 in0.0 mm 0.00 in0.0 mm
10:40 AM 34.9°F1.6°C 31.4°F-0.3°C 87% 1.0 mph S1.6 kmh S 4.0 mph6.4 kmh 30.52 in1033.5 mb 0.00 in0.0 mm 0.00 in0.0 mm 0.00 in0.0 mm
10:45 AM 34.8°F1.6°C 31.6°F-0.2°C 88% Calm Calm 4.0 mph6.4 kmh 30.52 in1033.5 mb 0.00 in0.0 mm 0.00 in0.0 mm 0.00 in0.0 mm
10:50 AM 35.0°F1.7°C 31.8°F-0.1°C 88% 1.0 mph SSW1.6 kmh SSW 4.0 mph6.4 kmh 30.52 in1033.5 mb 0.00 in0.0 mm 0.00 in0.0 mm 0.00 in0.0 mm
10:55 AM 35.6°F2.0°C 32.1°F0.1°C 87% 2.0 mph SSW3.2 kmh SSW 4.0 mph6.4 kmh 30.52 in1033.5 mb 0.00 in0.0 mm 0.00 in0.0 mm 0.00 in0.0 mm
11:00 AM 35.9°F2.2°C 32.4°F0.2°C 87% 1.0 mph SSW1.6 kmh SSW 4.0 mph6.4 kmh 30.52 in1033.5 mb 0.00 in0.0 mm 0.00 in0.0 mm 0.00 in0.0 mm
11:05 AM 36.3°F2.4°C 32.5°F0.3°C 86% 3.0 mph SSW4.8 kmh SSW 3.0 mph4.8 kmh 30.52 in1033.5 mb 0.00 in0.0 mm 0.00 in0.0 mm 0.00 in0.0 mm
11:10 AM 36.7°F2.6°C 32.9°F0.5°C 86% 2.0 mph SE3.2 kmh SE 4.0 mph6.4 kmh 30.52 in1033.5 mb 0.00 in0.0 mm 0.00 in0.0 mm 0.00 in0.0 mm
11:20 AM 37.9°F3.3°C 33.2°F0.7°C 83% 1.0 mph SSE1.6 kmh SSE 5.0 mph8.0 kmh 30.52 in1033.5 mb 0.00 in0.0 mm 0.00 in0.0 mm 0.00 in0.0 mm
11:35 AM 38.7°F3.7°C 33.7°F0.9°C 82% 1.0 mph SSE1.6 kmh SSE 6.0 mph9.7 kmh 30.52 in1033.5 mb 0.00 in0.0 mm 0.00 in0.0 mm 0.00 in0.0 mm
11:50 AM 39.9°F4.4°C 34.2°F1.2°C 80% Calm Calm 5.0 mph8.0 kmh 30.52 in1033.5 mb 0.00 in0.0 mm 0.00 in0.0 mm 0.00 in0.0 mm
12:05 PM 40.4°F4.7°C 34.7°F1.5°C 80% 2.0 mph SE3.2 kmh SE 5.0 mph8.0 kmh 30.52 in1033.5 mb 0.00 in0.0 mm 0.00 in0.0 mm 0.00 in0.0 mm
12:20 PM 41.5°F5.3°C 35.5°F1.9°C 79% 2.0 mph SSE3.2 kmh SSE 6.0 mph9.7 kmh 30.51 in1033.2 mb 0.00 in0.0 mm 0.00 in0.0 mm 0.00 in0.0 mm
12:35 PM 42.8°F6.0°C 36.4°F2.4°C 78% 4.0 mph ESE6.4 kmh ESE 5.0 mph8.0 kmh 30.51 in1033.2 mb 0.00 in0.0 mm 0.00 in0.0 mm 0.00 in0.0 mm
12:50 PM 43.7°F6.5°C 36.3°F2.4°C 75% 7.0 mph ESE11.3 kmh ESE 11.0 mph17.7 kmh 30.50 in1032.8 mb 0.00 in0.0 mm 0.00 in0.0 mm 0.00 in0.0 mm
01:05 PM 44.5°F6.9°C 36.7°F2.6°C 74% 4.0 mph S6.4 kmh S 7.0 mph11.3 kmh 30.49 in1032.5 mb 0.00 in0.0 mm 0.00 in0.0 mm 0.00 in0.0 mm
01:20 PM 45.5°F7.5°C 37.0°F2.8°C 72% 1.0 mph S1.6 kmh S 7.0 mph11.3 kmh 30.48 in1032.2 mb 0.00 in0.0 mm 0.00 in0.0 mm 0.00 in0.0 mm
01:35 PM 46.3°F7.9°C 36.7°F2.6°C 69% 4.0 mph SSE6.4 kmh SSE 5.0 mph8.0 kmh 30.47 in1031.8 mb 0.00 in0.0 mm 0.00 in0.0 mm 0.00 in0.0 mm
01:50 PM 47.2°F8.4°C 36.8°F2.7°C 67% 6.0 mph SE9.7 kmh SE 8.0 mph12.9 kmh 30.46 in1031.5 mb 0.00 in0.0 mm 0.00 in0.0 mm 0.00 in0.0 mm
02:05 PM 47.6°F8.7°C 36.4°F2.4°C 65% Calm Calm 10.0 mph16.1 kmh 30.45 in1031.2 mb 0.00 in0.0 mm 0.00 in0.0 mm 0.00 in0.0 mm
02:20 PM 48.1°F8.9°C 36.5°F2.5°C 64% 2.0 mph SE3.2 kmh SE 8.0 mph12.9 kmh 30.44 in1030.8 mb 0.00 in0.0 mm 0.00 in0.0 mm 0.00 in0.0 mm
02:35 PM 48.5°F9.2°C 36.9°F2.7°C 64% 4.0 mph SE6.4 kmh SE 8.0 mph12.9 kmh 30.43 in1030.5 mb 0.00 in0.0 mm 0.00 in0.0 mm 0.00 in0.0 mm
02:50 PM 49.2°F9.6°C 36.8°F2.7°C 62% 5.0 mph S8.0 kmh S 9.0 mph14.5 kmh 30.42 in1030.1 mb 0.00 in0.0 mm 0.00 in0.0 mm 0.00 in0.0 mm
03:05 PM 49.6°F9.8°C 37.1°F2.8°C 62% 2.0 mph SSE3.2 kmh SSE 5.0 mph8.0 kmh 30.42 in1030.1 mb 0.00 in0.0 mm 0.00 in0.0 mm 0.00 in0.0 mm
03:20 PM 49.7°F9.8°C 36.8°F2.7°C 61% Calm Calm 5.0 mph8.0 kmh 30.41 in1029.8 mb 0.00 in0.0 mm 0.00 in0.0 mm 0.00 in0.0 mm
03:35 PM 47.5°F8.6°C 38.2°F3.4°C 70% 2.0 mph W3.2 kmh W 7.0 mph11.3 kmh 30.41 in1029.8 mb 0.00 in0.0 mm 0.00 in0.0 mm 0.00 in0.0 mm
03:50 PM 45.8°F7.7°C 38.3°F3.5°C 75% 4.0 mph W6.4 kmh W 8.0 mph12.9 kmh 30.40 in1029.5 mb 0.00 in0.0 mm 0.00 in0.0 mm 0.00 in0.0 mm
04:05 PM 45.5°F7.5°C 38.4°F3.6°C 76% 6.0 mph W9.7 kmh W 7.0 mph11.3 kmh 30.40 in1029.5 mb 0.00 in0.0 mm 0.00 in0.0 mm 0.00 in0.0 mm
04:20 PM 45.5°F7.5°C 38.7°F3.7°C 77% 4.0 mph NW6.4 kmh NW 6.0 mph9.7 kmh 30.40 in1029.5 mb 0.00 in0.0 mm 0.00 in0.0 mm 0.00 in0.0 mm
04:35 PM 44.8°F7.1°C 38.7°F3.7°C 79% 5.0 mph W8.0 kmh W 5.0 mph8.0 kmh 30.40 in1029.5 mb 0.00 in0.0 mm 0.00 in0.0 mm 0.00 in0.0 mm
04:50 PM 43.5°F6.4°C 38.1°F3.4°C 81% 5.0 mph W8.0 kmh W 6.0 mph9.7 kmh 30.40 in1029.5 mb 0.00 in0.0 mm 0.00 in0.0 mm 0.00 in0.0 mm
05:05 PM 43.5°F6.4°C 38.4°F3.6°C 82% 3.0 mph WNW4.8 kmh WNW 6.0 mph9.7 kmh 30.40 in1029.5 mb 0.00 in0.0 mm 0.00 in0.0 mm 0.00 in0.0 mm
05:20 PM 44.0°F6.7°C 38.6°F3.7°C 81% Calm Calm 4.0 mph6.4 kmh 30.40 in1029.5 mb 0.00 in0.0 mm 0.00 in0.0 mm 0.00 in0.0 mm
05:35 PM 43.4°F6.3°C 38.0°F3.3°C 81% Calm Calm 4.0 mph6.4 kmh 30.40 in1029.5 mb 0.00 in0.0 mm 0.00 in0.0 mm 0.00 in0.0 mm
05:50 PM 42.9°F6.1°C 37.8°F3.2°C 82% 2.0 mph W3.2 kmh W 4.0 mph6.4 kmh 30.40 in1029.5 mb 0.00 in0.0 mm 0.00 in0.0 mm 0.00 in0.0 mm
06:05 PM 42.3°F5.7°C 37.5°F3.1°C 83% 1.0 mph W1.6 kmh W 3.0 mph4.8 kmh 30.40 in1029.5 mb 0.00 in0.0 mm 0.00 in0.0 mm 0.00 in0.0 mm
06:20 PM 41.2°F5.1°C 37.0°F2.8°C 85% 2.0 mph W3.2 kmh W 3.0 mph4.8 kmh 30.40 in1029.5 mb 0.00 in0.0 mm 0.00 in0.0 mm 0.00 in0.0 mm
06:35 PM 40.0°F4.4°C 36.2°F2.3°C 86% Calm Calm 1.0 mph1.6 kmh 30.39 in1029.1 mb 0.00 in0.0 mm 0.00 in0.0 mm 0.00 in0.0 mm
06:50 PM 38.6°F3.7°C 35.4°F1.9°C 88% Calm Calm -- 30.39 in1029.1 mb 0.00 in0.0 mm 0.00 in0.0 mm 0.00 in0.0 mm
07:05 PM 37.7°F3.2°C 34.8°F1.6°C 89% Calm Calm -- 30.39 in1029.1 mb 0.00 in0.0 mm 0.00 in0.0 mm 0.00 in0.0 mm
07:20 PM 37.2°F2.9°C 34.5°F1.4°C 90% Calm Calm -- 30.39 in1029.1 mb 0.00 in0.0 mm 0.00 in0.0 mm 0.00 in0.0 mm
07:35 PM 36.1°F2.3°C 33.5°F0.8°C 90% Calm Calm -- 30.39 in1029.1 mb 0.00 in0.0 mm 0.00 in0.0 mm 0.00 in0.0 mm
07:50 PM 34.9°F1.6°C 32.5°F0.3°C 91% Calm Calm -- 30.39 in1029.1 mb 0.00 in0.0 mm 0.00 in0.0 mm 0.00 in0.0 mm
08:05 PM 34.5°F1.4°C 32.4°F0.2°C 92% Calm Calm -- 30.39 in1029.1 mb 0.00 in0.0 mm 0.00 in0.0 mm 0.00 in0.0 mm
08:20 PM 33.7°F0.9°C 31.6°F-0.2°C 92% Calm Calm -- 30.39 in1029.1 mb 0.00 in0.0 mm 0.00 in0.0 mm 0.00 in0.0 mm
08:35 PM 32.9°F0.5°C 30.8°F-0.7°C 92% Calm Calm -- 30.39 in1029.1 mb 0.00 in0.0 mm 0.00 in0.0 mm 0.00 in0.0 mm
08:50 PM 32.8°F0.4°C 31.0°F-0.6°C 93% Calm Calm -- 30.39 in1029.1 mb 0.00 in0.0 mm 0.00 in0.0 mm 0.00 in0.0 mm
09:05 PM 32.3°F0.2°C 30.5°F-0.8°C 93% Calm Calm -- 30.40 in1029.5 mb 0.00 in0.0 mm 0.00 in0.0 mm 0.00 in0.0 mm
09:20 PM 32.5°F0.3°C 31.0°F-0.6°C 94% Calm Calm -- 30.39 in1029.1 mb 0.00 in0.0 mm 0.00 in0.0 mm 0.00 in0.0 mm
09:35 PM 32.1°F0.1°C 30.3°F-0.9°C 93% Calm Calm -- 30.39 in1029.1 mb 0.00 in0.0 mm 0.00 in0.0 mm 0.00 in0.0 mm
09:50 PM 31.6°F-0.2°C 29.8°F-1.2°C 93% Calm Calm -- 30.40 in1029.5 mb 0.00 in0.0 mm 0.00 in0.0 mm 0.00 in0.0 mm
10:05 PM 31.7°F-0.2°C 30.2°F-1.0°C 94% Calm Calm -- 30.39 in1029.1 mb 0.00 in0.0 mm 0.00 in0.0 mm 0.00 in0.0 mm
10:20 PM 31.5°F-0.3°C 30.0°F-1.1°C 94% Calm Calm -- 30.39 in1029.1 mb 0.00 in0.0 mm 0.00 in0.0 mm 0.00 in0.0 mm
10:35 PM 31.5°F-0.3°C 30.0°F-1.1°C 94% Calm Calm -- 30.39 in1029.1 mb 0.00 in0.0 mm 0.00 in0.0 mm 0.00 in0.0 mm
10:50 PM 31.6°F-0.2°C 30.1°F-1.1°C 94% Calm Calm -- 30.39 in1029.1 mb 0.00 in0.0 mm 0.00 in0.0 mm 0.00 in0.0 mm
11:05 PM 31.6°F-0.2°C 30.1°F-1.1°C 94% Calm Calm -- 30.40 in1029.5 mb 0.00 in0.0 mm 0.00 in0.0 mm 0.00 in0.0 mm
11:20 PM 32.0°F0.0°C 30.5°F-0.8°C 94% Calm Calm -- 30.40 in1029.5 mb 0.00 in0.0 mm 0.00 in0.0 mm 0.00 in0.0 mm
11:35 PM 32.7°F0.4°C 31.2°F-0.4°C 94% Calm Calm 1.0 mph1.6 kmh 30.40 in1029.5 mb 0.00 in0.0 mm 0.00 in0.0 mm 0.00 in0.0 mm
11:50 PM 31.9°F-0.1°C 30.4°F-0.9°C 94% 2.0 mph W3.2 kmh W 2.0 mph3.2 kmh 30.40 in1029.5 mb 0.00 in0.0 mm 0.00 in0.0 mm 0.00 in0.0 mm